Terminal Aerodrome Forecast
Issued by NWS

Home | Current Version | Previous Version | Graphics & Text | Print | Product List | Glossary On
Versions: 1 2 3 4 5 6 7 8 9 10 11 12 13 14 15 16 17 18 19 20 21
000
FTUS43 KABR 241129 CCA
TAFPIR
TAF COR
KPIR 241129Z 2411/2512 13015KT P6SM BKN150
     FM241600 20012KT P6SM BKN200
     FM250000 25016KT P6SM FEW250
     FM250400 27018G30KT P6SM SCT200=

USA.gov is the U.S. government's official web portal to all federal, state and local government web resources and services.